sensor_id;sensor_type;location;lat;lon;timestamp;temperature;humidity
3944;DHT22;1986;52.546;13.428;2024-03-08T00:00:16;2.30;4.50
3944;DHT22;1986;52.546;13.428;2024-03-08T00:02:45;2.20;7.30
3944;DHT22;1986;52.546;13.428;2024-03-08T00:05:13;2.20;11.30
3944;DHT22;1986;52.546;13.428;2024-03-08T00:07:41;2.20;14.50
3944;DHT22;1986;52.546;13.428;2024-03-08T00:10:11;2.20;17.60
3944;DHT22;1986;52.546;13.428;2024-03-08T00:12:41;2.10;19.50
3944;DHT22;1986;52.546;13.428;2024-03-08T00:15:09;2.00;22.60
3944;DHT22;1986;52.546;13.428;2024-03-08T00:17:36;2.00;25.50
3944;DHT22;1986;52.546;13.428;2024-03-08T00:20:04;2.00;27.90
3944;DHT22;1986;52.546;13.428;2024-03-08T00:22:36;2.00;29.90
3944;DHT22;1986;52.546;13.428;2024-03-08T00:25:03;1.90;32.80
3944;DHT22;1986;52.546;13.428;2024-03-08T00:27:31;1.90;35.70
3944;DHT22;1986;52.546;13.428;2024-03-08T00:30:02;1.90;39.10
3944;DHT22;1986;52.546;13.428;2024-03-08T00:32:29;1.90;42.60
3944;DHT22;1986;52.546;13.428;2024-03-08T00:34:57;1.90;44.90
3944;DHT22;1986;52.546;13.428;2024-03-08T00:37:24;1.90;46.40
3944;DHT22;1986;52.546;13.428;2024-03-08T00:39:52;1.80;47.80
3944;DHT22;1986;52.546;13.428;2024-03-08T00:42:20;1.70;48.10
3944;DHT22;1986;52.546;13.428;2024-03-08T00:44:49;1.70;49.40
3944;DHT22;1986;52.546;13.428;2024-03-08T00:47:18;1.70;51.80
3944;DHT22;1986;52.546;13.428;2024-03-08T00:49:46;1.60;54.10
3944;DHT22;1986;52.546;13.428;2024-03-08T00:52:30;1.70;56.70
3944;DHT22;1986;52.546;13.428;2024-03-08T00:55:06;1.60;58.50
3944;DHT22;1986;52.546;13.428;2024-03-08T00:57:34;1.60;60.80
3944;DHT22;1986;52.546;13.428;2024-03-08T01:00:06;1.50;63.10
3944;DHT22;1986;52.546;13.428;2024-03-08T01:02:46;1.50;66.40
3944;DHT22;1986;52.546;13.428;2024-03-08T01:05:15;1.50;69.40
3944;DHT22;1986;52.546;13.428;2024-03-08T01:07:49;1.50;71.60
3944;DHT22;1986;52.546;13.428;2024-03-08T01:10:16;1.50;73.50
3944;DHT22;1986;52.546;13.428;2024-03-08T01:12:47;1.40;75.70
3944;DHT22;1986;52.546;13.428;2024-03-08T01:15:15;1.40;78.10
3944;DHT22;1986;52.546;13.428;2024-03-08T01:17:53;1.40;80.80
3944;DHT22;1986;52.546;13.428;2024-03-08T01:20:20;1.40;82.60
3944;DHT22;1986;52.546;13.428;2024-03-08T01:22:49;1.40;85.30
3944;DHT22;1986;52.546;13.428;2024-03-08T01:25:16;1.30;88.20
3944;DHT22;1986;52.546;13.428;2024-03-08T01:27:44;1.30;90.00
3944;DHT22;1986;52.546;13.428;2024-03-08T01:30:11;1.30;90.80
3944;DHT22;1986;52.546;13.428;2024-03-08T01:32:38;1.30;91.60
3944;DHT22;1986;52.546;13.428;2024-03-08T01:35:08;1.30;92.10
3944;DHT22;1986;52.546;13.428;2024-03-08T01:37:36;1.30;92.70
3944;DHT22;1986;52.546;13.428;2024-03-08T01:40:04;1.30;93.50
3944;DHT22;1986;52.546;13.428;2024-03-08T01:42:32;1.30;94.20
3944;DHT22;1986;52.546;13.428;2024-03-08T01:44:59;1.30;94.50
3944;DHT22;1986;52.546;13.428;2024-03-08T01:47:26;1.30;94.80
3944;DHT22;1986;52.546;13.428;2024-03-08T01:49:55;1.20;95.40
3944;DHT22;1986;52.546;13.428;2024-03-08T01:52:25;1.20;96.10
3944;DHT22;1986;52.546;13.428;2024-03-08T01:54:53;1.20;96.70
3944;DHT22;1986;52.546;13.428;2024-03-08T01:57:22;1.20;97.90
3944;DHT22;1986;52.546;13.428;2024-03-08T01:59:50;1.10;98.80
3944;DHT22;1986;52.546;13.428;2024-03-08T02:02:21;1.10;99.90
3944;DHT22;1986;52.546;13.428;2024-03-08T02:04:49;1.10;99.90
3944;DHT22;1986;52.546;13.428;2024-03-08T02:07:18;1.10;99.90
3944;DHT22;1986;52.546;13.428;2024-03-08T02:09:47;1.00;99.90
3944;DHT22;1986;52.546;13.428;2024-03-08T02:12:14;1.00;99.90
3944;DHT22;1986;52.546;13.428;2024-03-08T02:14:41;0.90;99.90
3944;DHT22;1986;52.546;13.428;2024-03-08T02:17:09;0.90;99.90
3944;DHT22;1986;52.546;13.428;2024-03-08T02:19:37;0.90;99.90
3944;DHT22;1986;52.546;13.428;2024-03-08T02:22:14;0.90;99.90
3944;DHT22;1986;52.546;13.428;2024-03-08T02:24:44;0.80;99.90
3944;DHT22;1986;52.546;13.428;2024-03-08T02:27:11;0.80;99.90
3944;DHT22;1986;52.546;13.428;2024-03-08T02:29:38;0.80;99.90
3944;DHT22;1986;52.546;13.428;2024-03-08T02:32:06;0.70;99.90
3944;DHT22;1986;52.546;13.428;2024-03-08T02:34:33;0.70;99.90
3944;DHT22;1986;52.546;13.428;2024-03-08T02:37:00;0.70;99.90
3944;DHT22;1986;52.546;13.428;2024-03-08T02:39:31;0.70;99.90
3944;DHT22;1986;52.546;13.428;2024-03-08T02:41:58;0.70;99.90
3944;DHT22;1986;52.546;13.428;2024-03-08T02:44:25;0.70;99.90
3944;DHT22;1986;52.546;13.428;2024-03-08T02:46:53;0.70;99.90
3944;DHT22;1986;52.546;13.428;2024-03-08T02:49:22;0.70;99.90
3944;DHT22;1986;52.546;13.428;2024-03-08T02:51:49;0.70;99.90
3944;DHT22;1986;52.546;13.428;2024-03-08T02:54:16;0.70;99.90
3944;DHT22;1986;52.546;13.428;2024-03-08T02:56:46;0.80;99.90
3944;DHT22;1986;52.546;13.428;2024-03-08T02:59:15;0.70;99.90
3944;DHT22;1986;52.546;13.428;2024-03-08T03:01:43;0.70;99.90
3944;DHT22;1986;52.546;13.428;2024-03-08T03:04:10;0.70;99.90
3944;DHT22;1986;52.546;13.428;2024-03-08T03:06:37;0.70;99.90
3944;DHT22;1986;52.546;13.428;2024-03-08T03:09:04;0.70;99.90
3944;DHT22;1986;52.546;13.428;2024-03-08T03:11:31;0.70;99.90
3944;DHT22;1986;52.546;13.428;2024-03-08T03:14:00;0.70;99.90
3944;DHT22;1986;52.546;13.428;2024-03-08T03:16:27;0.60;99.90
3944;DHT22;1986;52.546;13.428;2024-03-08T03:18:54;0.60;99.90
3944;DHT22;1986;52.546;13.428;2024-03-08T03:21:22;0.60;99.90
3944;DHT22;1986;52.546;13.428;2024-03-08T03:23:49;0.60;99.90
3944;DHT22;1986;52.546;13.428;2024-03-08T03:26:16;0.60;99.90
3944;DHT22;1986;52.546;13.428;2024-03-08T03:28:44;0.60;99.90
3944;DHT22;1986;52.546;13.428;2024-03-08T03:31:12;0.60;99.90
3944;DHT22;1986;52.546;13.428;2024-03-08T03:33:40;0.60;99.90
3944;DHT22;1986;52.546;13.428;2024-03-08T03:36:07;0.60;99.90
3944;DHT22;1986;52.546;13.428;2024-03-08T03:38:35;0.50;99.90
3944;DHT22;1986;52.546;13.428;2024-03-08T03:41:03;0.50;99.90
3944;DHT22;1986;52.546;13.428;2024-03-08T03:43:35;0.50;99.90
3944;DHT22;1986;52.546;13.428;2024-03-08T03:46:06;0.50;99.90
3944;DHT22;1986;52.546;13.428;2024-03-08T03:48:34;0.50;99.90
3944;DHT22;1986;52.546;13.428;2024-03-08T03:51:01;0.50;99.90
3944;DHT22;1986;52.546;13.428;2024-03-08T03:53:28;0.50;99.90
3944;DHT22;1986;52.546;13.428;2024-03-08T03:55:55;0.50;99.90
3944;DHT22;1986;52.546;13.428;2024-03-08T03:58:22;0.40;99.90
3944;DHT22;1986;52.546;13.428;2024-03-08T04:00:49;0.40;99.90
3944;DHT22;1986;52.546;13.428;2024-03-08T04:03:16;0.40;99.90
3944;DHT22;1986;52.546;13.428;2024-03-08T04:05:46;0.40;99.90
3944;DHT22;1986;52.546;13.428;2024-03-08T04:08:13;0.40;99.90
3944;DHT22;1986;52.546;13.428;2024-03-08T04:10:40;0.40;99.90
3944;DHT22;1986;52.546;13.428;2024-03-08T04:13:07;0.40;99.90
3944;DHT22;1986;52.546;13.428;2024-03-08T04:15:35;0.40;99.90
3944;DHT22;1986;52.546;13.428;2024-03-08T04:18:03;0.40;99.90
3944;DHT22;1986;52.546;13.428;2024-03-08T04:20:30;0.40;99.90
3944;DHT22;1986;52.546;13.428;2024-03-08T04:22:59;0.30;99.90
3944;DHT22;1986;52.546;13.428;2024-03-08T04:25:26;0.30;99.90
3944;DHT22;1986;52.546;13.428;2024-03-08T04:27:53;0.30;99.90
3944;DHT22;1986;52.546;13.428;2024-03-08T04:30:20;0.30;99.90
3944;DHT22;1986;52.546;13.428;2024-03-08T04:32:48;0.30;99.90
3944;DHT22;1986;52.546;13.428;2024-03-08T04:35:15;0.30;99.90
3944;DHT22;1986;52.546;13.428;2024-03-08T04:37:42;0.30;99.90
3944;DHT22;1986;52.546;13.428;2024-03-08T04:40:10;0.20;99.90
3944;DHT22;1986;52.546;13.428;2024-03-08T04:42:42;0.20;99.90
3944;DHT22;1986;52.546;13.428;2024-03-08T04:45:09;0.20;99.90
3944;DHT22;1986;52.546;13.428;2024-03-08T04:47:37;0.20;99.90
3944;DHT22;1986;52.546;13.428;2024-03-08T04:50:05;0.20;99.90
3944;DHT22;1986;52.546;13.428;2024-03-08T04:52:32;0.20;99.90
3944;DHT22;1986;52.546;13.428;2024-03-08T04:54:59;0.20;99.90
3944;DHT22;1986;52.546;13.428;2024-03-08T04:57:29;0.20;99.90
3944;DHT22;1986;52.546;13.428;2024-03-08T04:59:56;0.10;99.90
3944;DHT22;1986;52.546;13.428;2024-03-08T05:02:24;0.10;99.90
3944;DHT22;1986;52.546;13.428;2024-03-08T05:04:52;0.10;99.90
3944;DHT22;1986;52.546;13.428;2024-03-08T05:07:19;0.10;99.90
3944;DHT22;1986;52.546;13.428;2024-03-08T05:09:46;0.00;99.90
3944;DHT22;1986;52.546;13.428;2024-03-08T05:12:17;0.00;99.90
3944;DHT22;1986;52.546;13.428;2024-03-08T05:14:45;0.00;99.90
3944;DHT22;1986;52.546;13.428;2024-03-08T05:17:15;0.00;99.90
3944;DHT22;1986;52.546;13.428;2024-03-08T05:19:43;-0.10;99.90
3944;DHT22;1986;52.546;13.428;2024-03-08T05:22:10;-0.10;99.90
3944;DHT22;1986;52.546;13.428;2024-03-08T05:24:37;-0.10;99.90
3944;DHT22;1986;52.546;13.428;2024-03-08T05:27:04;-0.10;99.90
3944;DHT22;1986;52.546;13.428;2024-03-08T05:29:31;-0.10;99.90
3944;DHT22;1986;52.546;13.428;2024-03-08T05:32:00;-0.10;99.90
3944;DHT22;1986;52.546;13.428;2024-03-08T05:34:28;-0.10;99.90
3944;DHT22;1986;52.546;13.428;2024-03-08T05:36:55;-0.10;99.90
3944;DHT22;1986;52.546;13.428;2024-03-08T05:39:23;-0.10;99.90
3944;DHT22;1986;52.546;13.428;2024-03-08T05:41:50;-0.10;99.90
3944;DHT22;1986;52.546;13.428;2024-03-08T05:44:17;-0.10;99.90
3944;DHT22;1986;52.546;13.428;2024-03-08T05:46:44;-0.10;99.90
3944;DHT22;1986;52.546;13.428;2024-03-08T05:49:14;-0.10;99.90
3944;DHT22;1986;52.546;13.428;2024-03-08T05:51:41;-0.10;99.90
3944;DHT22;1986;52.546;13.428;2024-03-08T05:54:10;-0.10;99.90
3944;DHT22;1986;52.546;13.428;2024-03-08T05:56:38;-0.10;99.90
3944;DHT22;1986;52.546;13.428;2024-03-08T05:59:07;-0.10;99.90
3944;DHT22;1986;52.546;13.428;2024-03-08T06:01:35;-0.10;99.90
3944;DHT22;1986;52.546;13.428;2024-03-08T06:04:03;0.00;99.90
3944;DHT22;1986;52.546;13.428;2024-03-08T06:06:34;0.00;99.90
3944;DHT22;1986;52.546;13.428;2024-03-08T06:09:03;0.10;99.90
3944;DHT22;1986;52.546;13.428;2024-03-08T06:11:34;0.20;99.90
3944;DHT22;1986;52.546;13.428;2024-03-08T06:14:03;0.40;99.90
3944;DHT22;1986;52.546;13.428;2024-03-08T06:16:30;0.40;99.90
3944;DHT22;1986;52.546;13.428;2024-03-08T06:18:57;0.50;99.90
3944;DHT22;1986;52.546;13.428;2024-03-08T06:21:24;0.50;99.90
3944;DHT22;1986;52.546;13.428;2024-03-08T06:23:53;0.50;99.90
3944;DHT22;1986;52.546;13.428;2024-03-08T06:26:23;0.60;99.90
3944;DHT22;1986;52.546;13.428;2024-03-08T06:28:50;0.70;99.90
3944;DHT22;1986;52.546;13.428;2024-03-08T06:31:17;0.90;99.90
3944;DHT22;1986;52.546;13.428;2024-03-08T06:33:45;0.90;99.90
3944;DHT22;1986;52.546;13.428;2024-03-08T06:36:16;0.90;99.90
3944;DHT22;1986;52.546;13.428;2024-03-08T06:38:44;0.90;99.90
3944;DHT22;1986;52.546;13.428;2024-03-08T06:41:13;0.90;99.90
3944;DHT22;1986;52.546;13.428;2024-03-08T06:43:41;1.00;99.90
3944;DHT22;1986;52.546;13.428;2024-03-08T06:46:09;1.10;99.90
3944;DHT22;1986;52.546;13.428;2024-03-08T06:48:38;1.20;99.90
3944;DHT22;1986;52.546;13.428;2024-03-08T06:51:05;1.30;99.90
3944;DHT22;1986;52.546;13.428;2024-03-08T06:53:33;1.30;99.90
3944;DHT22;1986;52.546;13.428;2024-03-08T06:56:01;1.30;99.90
3944;DHT22;1986;52.546;13.428;2024-03-08T06:58:29;1.30;99.90
3944;DHT22;1986;52.546;13.428;2024-03-08T07:00:56;1.40;99.90
3944;DHT22;1986;52.546;13.428;2024-03-08T07:03:31;1.30;99.90
3944;DHT22;1986;52.546;13.428;2024-03-08T07:05:58;1.50;99.90
3944;DHT22;1986;52.546;13.428;2024-03-08T07:08:28;1.50;99.90
3944;DHT22;1986;52.546;13.428;2024-03-08T07:11:01;1.60;99.90
3944;DHT22;1986;52.546;13.428;2024-03-08T07:13:34;1.70;99.90
3944;DHT22;1986;52.546;13.428;2024-03-08T07:16:02;1.80;99.90
3944;DHT22;1986;52.546;13.428;2024-03-08T07:18:30;1.80;99.90
3944;DHT22;1986;52.546;13.428;2024-03-08T07:21:01;1.70;99.90
3944;DHT22;1986;52.546;13.428;2024-03-08T07:23:30;1.70;99.90
3944;DHT22;1986;52.546;13.428;2024-03-08T07:26:15;1.70;99.90
3944;DHT22;1986;52.546;13.428;2024-03-08T07:28:45;1.80;99.90
3944;DHT22;1986;52.546;13.428;2024-03-08T07:31:13;1.90;99.90
3944;DHT22;1986;52.546;13.428;2024-03-08T07:33:51;2.00;99.90
3944;DHT22;1986;52.546;13.428;2024-03-08T07:36:19;2.20;99.90
3944;DHT22;1986;52.546;13.428;2024-03-08T07:38:50;2.40;99.90
3944;DHT22;1986;52.546;13.428;2024-03-08T07:41:31;2.20;99.30
3944;DHT22;1986;52.546;13.428;2024-03-08T07:44:08;2.40;96.80
3944;DHT22;1986;52.546;13.428;2024-03-08T07:46:37;2.50;93.40
3944;DHT22;1986;52.546;13.428;2024-03-08T07:49:04;2.60;88.80
3944;DHT22;1986;52.546;13.428;2024-03-08T07:51:38;2.30;76.00
3944;DHT22;1986;52.546;13.428;2024-03-08T07:54:05;2.40;71.90
3944;DHT22;1986;52.546;13.428;2024-03-08T07:56:35;2.40;69.60
3944;DHT22;1986;52.546;13.428;2024-03-08T07:59:10;2.50;68.30
3944;DHT22;1986;52.546;13.428;2024-03-08T08:01:38;2.60;63.50
3944;DHT22;1986;52.546;13.428;2024-03-08T08:04:09;2.80;60.00
3944;DHT22;1986;52.546;13.428;2024-03-08T08:06:46;2.90;53.30
3944;DHT22;1986;52.546;13.428;2024-03-08T08:09:18;3.00;43.20
3944;DHT22;1986;52.546;13.428;2024-03-08T08:11:59;3.20;35.40
3944;DHT22;1986;52.546;13.428;2024-03-08T08:14:30;3.30;23.30
3944;DHT22;1986;52.546;13.428;2024-03-08T08:16:58;3.30;11.40
3944;DHT22;1986;52.546;13.428;2024-03-08T08:19:29;3.40;1.20
3944;DHT22;1986;52.546;13.428;2024-03-08T08:22:00;3.50;1.00
3944;DHT22;1986;52.546;13.428;2024-03-08T08:24:27;3.60;1.00
3944;DHT22;1986;52.546;13.428;2024-03-08T08:27:01;3.60;1.00
3944;DHT22;1986;52.546;13.428;2024-03-08T08:29:55;3.80;1.00
3944;DHT22;1986;52.546;13.428;2024-03-08T08:32:26;3.80;1.00
3944;DHT22;1986;52.546;13.428;2024-03-08T08:34:53;3.90;1.00
3944;DHT22;1986;52.546;13.428;2024-03-08T08:37:24;3.80;1.00
3944;DHT22;1986;52.546;13.428;2024-03-08T08:39:53;4.00;1.00
3944;DHT22;1986;52.546;13.428;2024-03-08T08:42:20;3.90;1.00
3944;DHT22;1986;52.546;13.428;2024-03-08T08:44:48;4.10;1.00
3944;DHT22;1986;52.546;13.428;2024-03-08T08:47:24;4.00;1.00
3944;DHT22;1986;52.546;13.428;2024-03-08T08:49:53;4.30;1.00
3944;DHT22;1986;52.546;13.428;2024-03-08T08:52:23;4.40;1.00
3944;DHT22;1986;52.546;13.428;2024-03-08T08:54:56;4.30;1.00
3944;DHT22;1986;52.546;13.428;2024-03-08T08:57:25;4.50;1.00
3944;DHT22;1986;52.546;13.428;2024-03-08T08:59:53;4.30;1.00
3944;DHT22;1986;52.546;13.428;2024-03-08T09:02:22;4.60;1.00
3944;DHT22;1986;52.546;13.428;2024-03-08T09:04:51;4.70;99.90
3944;DHT22;1986;52.546;13.428;2024-03-08T09:07:18;4.70;99.90
3944;DHT22;1986;52.546;13.428;2024-03-08T09:09:45;4.60;1.00
3944;DHT22;1986;52.546;13.428;2024-03-08T09:12:13;4.70;1.00
3944;DHT22;1986;52.546;13.428;2024-03-08T09:14:46;4.70;1.00
3944;DHT22;1986;52.546;13.428;2024-03-08T09:17:47;4.90;1.00
3944;DHT22;1986;52.546;13.428;2024-03-08T09:20:17;5.00;99.90
3944;DHT22;1986;52.546;13.428;2024-03-08T09:22:49;5.10;99.90
3944;DHT22;1986;52.546;13.428;2024-03-08T09:25:16;5.10;1.00
3944;DHT22;1986;52.546;13.428;2024-03-08T09:27:52;5.20;1.00
3944;DHT22;1986;52.546;13.428;2024-03-08T09:30:19;5.10;1.00
3944;DHT22;1986;52.546;13.428;2024-03-08T09:32:48;5.20;99.90
3944;DHT22;1986;52.546;13.428;2024-03-08T09:35:20;5.40;99.90
3944;DHT22;1986;52.546;13.428;2024-03-08T09:37:59;5.30;1.00
3944;DHT22;1986;52.546;13.428;2024-03-08T09:40:26;5.50;1.00
3944;DHT22;1986;52.546;13.428;2024-03-08T09:42:55;5.50;1.00
3944;DHT22;1986;52.546;13.428;2024-03-08T09:45:23;5.30;1.00
3944;DHT22;1986;52.546;13.428;2024-03-08T09:47:52;5.60;1.00
3944;DHT22;1986;52.546;13.428;2024-03-08T09:50:21;5.70;1.00
3944;DHT22;1986;52.546;13.428;2024-03-08T09:52:49;5.50;1.00
3944;DHT22;1986;52.546;13.428;2024-03-08T09:55:19;5.40;99.90
3944;DHT22;1986;52.546;13.428;2024-03-08T09:57:51;5.30;99.90
3944;DHT22;1986;52.546;13.428;2024-03-08T10:00:32;5.30;99.90
3944;DHT22;1986;52.546;13.428;2024-03-08T10:03:05;5.70;1.00
3944;DHT22;1986;52.546;13.428;2024-03-08T10:05:33;5.70;99.90
3944;DHT22;1986;52.546;13.428;2024-03-08T10:08:08;5.60;99.90
3944;DHT22;1986;52.546;13.428;2024-03-08T10:10:42;5.80;99.90
3944;DHT22;1986;52.546;13.428;2024-03-08T10:13:10;6.00;99.90
3944;DHT22;1986;52.546;13.428;2024-03-08T10:15:42;5.70;99.90
3944;DHT22;1986;52.546;13.428;2024-03-08T10:18:13;5.60;34.90
3944;DHT22;1986;52.546;13.428;2024-03-08T10:21:02;5.70;64.50
3944;DHT22;1986;52.546;13.428;2024-03-08T10:23:34;5.70;91.30
3944;DHT22;1986;52.546;13.428;2024-03-08T10:26:13;5.80;73.20
3944;DHT22;1986;52.546;13.428;2024-03-08T10:28:41;5.70;1.00
3944;DHT22;1986;52.546;13.428;2024-03-08T10:31:20;5.80;1.00
3944;DHT22;1986;52.546;13.428;2024-03-08T10:33:54;6.10;3.80
3944;DHT22;1986;52.546;13.428;2024-03-08T10:36:26;6.20;1.00
3944;DHT22;1986;52.546;13.428;2024-03-08T10:39:01;6.20;1.00
3944;DHT22;1986;52.546;13.428;2024-03-08T10:41:31;6.10;1.00
3944;DHT22;1986;52.546;13.428;2024-03-08T10:44:10;6.10;1.00
3944;DHT22;1986;52.546;13.428;2024-03-08T10:46:57;6.10;1.00
3944;DHT22;1986;52.546;13.428;2024-03-08T10:49:41;6.20;1.00
3944;DHT22;1986;52.546;13.428;2024-03-08T10:52:15;6.20;1.00
3944;DHT22;1986;52.546;13.428;2024-03-08T10:54:47;6.10;1.00
3944;DHT22;1986;52.546;13.428;2024-03-08T10:57:22;6.20;1.00
3944;DHT22;1986;52.546;13.428;2024-03-08T10:59:51;6.40;1.00
3944;DHT22;1986;52.546;13.428;2024-03-08T11:02:18;6.50;1.00
3944;DHT22;1986;52.546;13.428;2024-03-08T11:04:51;6.40;1.00
3944;DHT22;1986;52.546;13.428;2024-03-08T11:07:26;6.80;1.00
3944;DHT22;1986;52.546;13.428;2024-03-08T11:09:56;6.60;99.90
3944;DHT22;1986;52.546;13.428;2024-03-08T11:12:28;6.50;99.90
3944;DHT22;1986;52.546;13.428;2024-03-08T11:15:00;6.60;99.90
3944;DHT22;1986;52.546;13.428;2024-03-08T11:17:48;6.70;99.90
3944;DHT22;1986;52.546;13.428;2024-03-08T11:20:18;6.80;99.90
3944;DHT22;1986;52.546;13.428;2024-03-08T11:22:50;7.00;99.90
3944;DHT22;1986;52.546;13.428;2024-03-08T11:25:39;7.10;99.90
3944;DHT22;1986;52.546;13.428;2024-03-08T11:28:13;6.90;99.90
3944;DHT22;1986;52.546;13.428;2024-03-08T11:31:23;6.90;99.90
3944;DHT22;1986;52.546;13.428;2024-03-08T11:33:53;6.90;99.90
3944;DHT22;1986;52.546;13.428;2024-03-08T11:36:24;7.20;99.90
3944;DHT22;1986;52.546;13.428;2024-03-08T11:38:52;7.50;99.90
3944;DHT22;1986;52.546;13.428;2024-03-08T11:41:24;7.30;99.90
3944;DHT22;1986;52.546;13.428;2024-03-08T11:44:05;7.40;99.90
3944;DHT22;1986;52.546;13.428;2024-03-08T11:46:33;7.20;99.90
3944;DHT22;1986;52.546;13.428;2024-03-08T11:49:01;7.00;99.90
3944;DHT22;1986;52.546;13.428;2024-03-08T11:51:30;7.00;94.50
3944;DHT22;1986;52.546;13.428;2024-03-08T11:54:05;7.30;73.60
3944;DHT22;1986;52.546;13.428;2024-03-08T11:56:49;7.20;34.30
3944;DHT22;1986;52.546;13.428;2024-03-08T11:59:23;7.20;13.00
3944;DHT22;1986;52.546;13.428;2024-03-08T12:02:04;7.20;19.20
3944;DHT22;1986;52.546;13.428;2024-03-08T12:04:32;7.40;26.80
3944;DHT22;1986;52.546;13.428;2024-03-08T12:07:04;7.40;9.90
3944;DHT22;1986;52.546;13.428;2024-03-08T12:09:35;7.40;1.00
3944;DHT22;1986;52.546;13.428;2024-03-08T12:12:08;7.20;1.00
3944;DHT22;1986;52.546;13.428;2024-03-08T12:14:42;7.30;1.00
3944;DHT22;1986;52.546;13.428;2024-03-08T12:17:13;7.30;1.00
3944;DHT22;1986;52.546;13.428;2024-03-08T12:19:45;7.50;1.00
3944;DHT22;1986;52.546;13.428;2024-03-08T12:22:37;7.50;1.00
3944;DHT22;1986;52.546;13.428;2024-03-08T12:25:09;7.60;1.00
3944;DHT22;1986;52.546;13.428;2024-03-08T12:27:44;7.80;1.00
3944;DHT22;1986;52.546;13.428;2024-03-08T12:30:21;7.70;1.00
3944;DHT22;1986;52.546;13.428;2024-03-08T12:32:55;7.50;1.00
3944;DHT22;1986;52.546;13.428;2024-03-08T12:35:27;7.70;1.00
3944;DHT22;1986;52.546;13.428;2024-03-08T12:37:57;7.60;1.00
3944;DHT22;1986;52.546;13.428;2024-03-08T12:40:32;7.90;1.00
3944;DHT22;1986;52.546;13.428;2024-03-08T12:43:00;7.90;1.00
3944;DHT22;1986;52.546;13.428;2024-03-08T12:45:31;8.00;1.00
3944;DHT22;1986;52.546;13.428;2024-03-08T12:47:59;7.70;1.00
3944;DHT22;1986;52.546;13.428;2024-03-08T12:50:31;7.90;1.00
3944;DHT22;1986;52.546;13.428;2024-03-08T12:53:01;7.90;1.00
3944;DHT22;1986;52.546;13.428;2024-03-08T12:55:31;7.80;1.00
3944;DHT22;1986;52.546;13.428;2024-03-08T12:58:01;8.00;1.00
3944;DHT22;1986;52.546;13.428;2024-03-08T13:00:29;7.70;1.00
3944;DHT22;1986;52.546;13.428;2024-03-08T13:02:57;7.80;1.00
3944;DHT22;1986;52.546;13.428;2024-03-08T13:05:25;7.80;1.00
3944;DHT22;1986;52.546;13.428;2024-03-08T13:07:53;7.90;1.00
3944;DHT22;1986;52.546;13.428;2024-03-08T13:10:22;8.00;1.00
3944;DHT22;1986;52.546;13.428;2024-03-08T13:12:49;8.20;1.00
3944;DHT22;1986;52.546;13.428;2024-03-08T13:15:18;8.10;1.00
3944;DHT22;1986;52.546;13.428;2024-03-08T13:17:49;8.10;1.00
3944;DHT22;1986;52.546;13.428;2024-03-08T13:20:17;8.00;1.00
3944;DHT22;1986;52.546;13.428;2024-03-08T13:22:47;8.20;1.00
3944;DHT22;1986;52.546;13.428;2024-03-08T13:25:30;8.40;1.00
3944;DHT22;1986;52.546;13.428;2024-03-08T13:27:59;8.30;1.00
3944;DHT22;1986;52.546;13.428;2024-03-08T13:30:26;8.10;1.00
3944;DHT22;1986;52.546;13.428;2024-03-08T13:32:54;7.90;1.00
3944;DHT22;1986;52.546;13.428;2024-03-08T13:35:21;8.00;1.00
3944;DHT22;1986;52.546;13.428;2024-03-08T13:37:51;8.10;1.00
3944;DHT22;1986;52.546;13.428;2024-03-08T13:40:21;8.20;1.00
3944;DHT22;1986;52.546;13.428;2024-03-08T13:42:48;8.30;1.00
3944;DHT22;1986;52.546;13.428;2024-03-08T13:45:18;8.40;1.00
3944;DHT22;1986;52.546;13.428;2024-03-08T13:47:57;8.20;1.00
3944;DHT22;1986;52.546;13.428;2024-03-08T13:50:24;8.30;1.00
3944;DHT22;1986;52.546;13.428;2024-03-08T13:53:03;8.30;1.00
3944;DHT22;1986;52.546;13.428;2024-03-08T13:55:31;8.30;1.00
3944;DHT22;1986;52.546;13.428;2024-03-08T13:58:04;8.30;1.00
3944;DHT22;1986;52.546;13.428;2024-03-08T14:00:43;8.30;1.00
3944;DHT22;1986;52.546;13.428;2024-03-08T14:03:15;8.40;1.70
3944;DHT22;1986;52.546;13.428;2024-03-08T14:05:44;8.30;47.70
3944;DHT22;1986;52.546;13.428;2024-03-08T14:08:12;8.30;45.50
3944;DHT22;1986;52.546;13.428;2024-03-08T14:10:43;8.20;47.10
3944;DHT22;1986;52.546;13.428;2024-03-08T14:13:12;8.20;42.00
3944;DHT22;1986;52.546;13.428;2024-03-08T14:15:59;8.10;17.30
3944;DHT22;1986;52.546;13.428;2024-03-08T14:18:29;8.00;32.00
3944;DHT22;1986;52.546;13.428;2024-03-08T14:20:59;8.20;58.30
3944;DHT22;1986;52.546;13.428;2024-03-08T14:23:26;8.20;79.50
3944;DHT22;1986;52.546;13.428;2024-03-08T14:25:55;8.20;91.00
3944;DHT22;1986;52.546;13.428;2024-03-08T14:28:27;8.10;58.10
3944;DHT22;1986;52.546;13.428;2024-03-08T14:30:54;8.20;54.20
3944;DHT22;1986;52.546;13.428;2024-03-08T14:33:26;8.20;41.10
3944;DHT22;1986;52.546;13.428;2024-03-08T14:35:57;8.20;46.10
3944;DHT22;1986;52.546;13.428;2024-03-08T14:38:28;8.30;41.60
3944;DHT22;1986;52.546;13.428;2024-03-08T14:40:55;8.30;37.80
3944;DHT22;1986;52.546;13.428;2024-03-08T14:43:27;8.40;19.40
3944;DHT22;1986;52.546;13.428;2024-03-08T14:45:54;8.30;5.30
3944;DHT22;1986;52.546;13.428;2024-03-08T14:48:24;8.20;1.00
3944;DHT22;1986;52.546;13.428;2024-03-08T14:50:52;8.30;1.00
3944;DHT22;1986;52.546;13.428;2024-03-08T14:53:21;8.20;1.00
3944;DHT22;1986;52.546;13.428;2024-03-08T14:55:48;8.30;1.00
3944;DHT22;1986;52.546;13.428;2024-03-08T14:58:16;8.30;1.00
3944;DHT22;1986;52.546;13.428;2024-03-08T15:00:46;8.30;1.00
3944;DHT22;1986;52.546;13.428;2024-03-08T15:03:14;8.30;1.00
3944;DHT22;1986;52.546;13.428;2024-03-08T15:05:49;8.40;1.00
3944;DHT22;1986;52.546;13.428;2024-03-08T15:08:17;8.40;1.00
3944;DHT22;1986;52.546;13.428;2024-03-08T15:10:56;8.40;1.00
3944;DHT22;1986;52.546;13.428;2024-03-08T15:13:29;8.40;1.00
3944;DHT22;1986;52.546;13.428;2024-03-08T15:16:06;8.50;1.00
3944;DHT22;1986;52.546;13.428;2024-03-08T15:18:45;8.50;1.00
3944;DHT22;1986;52.546;13.428;2024-03-08T15:21:17;8.50;1.00
3944;DHT22;1986;52.546;13.428;2024-03-08T15:23:45;8.50;1.00
3944;DHT22;1986;52.546;13.428;2024-03-08T15:26:22;8.70;1.00
3944;DHT22;1986;52.546;13.428;2024-03-08T15:28:51;8.50;1.00
3944;DHT22;1986;52.546;13.428;2024-03-08T15:31:23;8.50;1.00
3944;DHT22;1986;52.546;13.428;2024-03-08T15:33:52;8.50;1.00
3944;DHT22;1986;52.546;13.428;2024-03-08T15:36:27;8.50;1.00
3944;DHT22;1986;52.546;13.428;2024-03-08T15:38:59;8.50;1.00
3944;DHT22;1986;52.546;13.428;2024-03-08T15:41:28;8.40;1.00
3944;DHT22;1986;52.546;13.428;2024-03-08T15:43:55;8.40;1.00
3944;DHT22;1986;52.546;13.428;2024-03-08T15:46:22;8.40;1.00
3944;DHT22;1986;52.546;13.428;2024-03-08T15:48:50;8.40;1.00
3944;DHT22;1986;52.546;13.428;2024-03-08T15:51:18;8.40;1.00
3944;DHT22;1986;52.546;13.428;2024-03-08T15:53:47;8.30;1.00
3944;DHT22;1986;52.546;13.428;2024-03-08T15:56:20;8.30;1.00
3944;DHT22;1986;52.546;13.428;2024-03-08T15:58:48;8.30;1.00
3944;DHT22;1986;52.546;13.428;2024-03-08T16:01:17;8.30;1.00
3944;DHT22;1986;52.546;13.428;2024-03-08T16:03:46;8.20;1.00
3944;DHT22;1986;52.546;13.428;2024-03-08T16:06:17;8.20;1.00
3944;DHT22;1986;52.546;13.428;2024-03-08T16:08:48;8.20;1.00
3944;DHT22;1986;52.546;13.428;2024-03-08T16:11:27;8.20;1.00
3944;DHT22;1986;52.546;13.428;2024-03-08T16:13:55;8.20;1.00
3944;DHT22;1986;52.546;13.428;2024-03-08T16:16:23;8.20;1.00
3944;DHT22;1986;52.546;13.428;2024-03-08T16:18:57;8.20;1.00
3944;DHT22;1986;52.546;13.428;2024-03-08T16:21:27;8.10;1.00
3944;DHT22;1986;52.546;13.428;2024-03-08T16:23:56;8.10;1.00
3944;DHT22;1986;52.546;13.428;2024-03-08T16:26:23;8.10;1.00